Time;durP1;ratioP1;P1;durP2;ratioP2;P2;SDS_P1;SDS_P2;PMS_P1;PMS_P2;Temp;Humidity;BMP_temperature;BMP_pressure;BME280_temperature;BME280_humidity;BME280_pressure;Samples;Min_cycle;Max_cycle;Signal;HPM_P1;HPM_P2
2023/07/20 00:00:06;;;;;;;0.10;0.10;;;;;;;;;;5108484;28;20143;-42
2023/07/20 00:02:32;;;;;;;0.10;0.10;;;;;;;;;;5092307;28;20081;-41
2023/07/20 00:04:57;;;;;;;0.10;0.10;;;;;;;;;;5105738;28;20059;-44
2023/07/20 00:07:24;;;;;;;0.10;0.10;;;;;;;;;;5112019;28;20104;-42
2023/07/20 00:09:50;;;;;;;0.10;0.10;;;;;;;;;;5108793;28;20400;-43
2023/07/20 00:12:15;;;;;;;0.10;0.10;;;;;;;;;;5091679;28;20048;-45
2023/07/20 00:14:41;;;;;;;0.10;0.10;;;;;;;;;;5095819;28;20459;-42
2023/07/20 00:17:06;;;;;;;0.10;0.10;;;;;;;;;;5111457;28;20074;-42
2023/07/20 00:19:32;;;;;;;0.10;0.10;;;;;;;;;;5112376;28;20054;-40
2023/07/20 00:21:57;;;;;;;0.10;0.10;;;;;;;;;;5112269;28;20048;-42
2023/07/20 00:24:23;;;;;;;0.10;0.10;;;;;;;;;;5112046;28;20040;-43
2023/07/20 00:26:48;;;;;;;0.10;0.10;;;;;;;;;;5110838;28;20054;-42
2023/07/20 00:29:14;;;;;;;0.10;0.10;;;;;;;;;;5111783;28;20127;-43
2023/07/20 00:31:40;;;;;;;0.20;0.20;;;;;;;;;;5094590;28;20059;-40
2023/07/20 00:34:05;;;;;;;0.10;0.10;;;;;;;;;;5091217;28;20043;-44
2023/07/20 00:36:31;;;;;;;0.10;0.10;;;;;;;;;;5097741;28;20078;-39
2023/07/20 00:38:57;;;;;;;0.10;0.10;;;;;;;;;;5111401;28;20091;-42
2023/07/20 00:41:22;;;;;;;0.10;0.10;;;;;;;;;;5096764;28;20074;-43
2023/07/20 00:43:48;;;;;;;0.10;0.10;;;;;;;;;;5110709;28;20097;-40
2023/07/20 00:46:14;;;;;;;0.10;0.10;;;;;;;;;;5111209;28;20096;-42
2023/07/20 00:48:40;;;;;;;0.10;0.10;;;;;;;;;;5111420;28;20092;-43
2023/07/20 00:51:06;;;;;;;0.10;0.10;;;;;;;;;;5099021;28;20051;-42
2023/07/20 00:53:32;;;;;;;0.10;0.10;;;;;;;;;;5118502;28;20047;-42
2023/07/20 00:55:58;;;;;;;0.10;0.10;;;;;;;;;;5131825;28;20043;-40
2023/07/20 00:58:24;;;;;;;0.10;0.10;;;;;;;;;;5131427;28;20482;-42
2023/07/20 01:00:49;;;;;;;0.10;0.10;;;;;;;;;;5114284;28;20183;-40
2023/07/20 01:03:15;;;;;;;0.10;0.10;;;;;;;;;;5111199;28;20055;-42
2023/07/20 01:05:46;;;;;;;0.10;0.10;;;;;;;;;;5111410;28;20400;-40
2023/07/20 01:08:16;;;;;;;0.10;0.10;;;;;;;;;;5111611;28;20047;-45
2023/07/20 01:10:45;;;;;;;0.10;0.10;;;;;;;;;;5110735;28;20047;-41
2023/07/20 01:13:13;;;;;;;0.10;0.10;;;;;;;;;;5111365;28;20058;-40
2023/07/20 01:15:38;;;;;;;0.15;0.15;;;;;;;;;;5111002;28;20040;-42
2023/07/20 01:18:04;;;;;;;0.10;0.10;;;;;;;;;;5111213;28;20468;-42
2023/07/20 01:20:31;;;;;;;0.10;0.10;;;;;;;;;;5103687;28;20404;-44
2023/07/20 01:23:16;;;;;;;0.10;0.10;;;;;;;;;;5091317;28;20048;-41
2023/07/20 01:26:02;;;;;;;0.10;0.10;;;;;;;;;;5075786;28;20071;-41
2023/07/20 01:28:35;;;;;;;0.10;0.10;;;;;;;;;;5081486;28;20048;-43
2023/07/20 01:31:20;;;;;;;0.10;0.10;;;;;;;;;;5111156;28;20545;-42
2023/07/20 01:33:46;;;;;;;0.10;0.10;;;;;;;;;;5095175;28;20069;-42
2023/07/20 01:36:13;;;;;;;0.10;0.10;;;;;;;;;;5111224;28;20047;-41
2023/07/20 01:38:39;;;;;;;0.10;0.10;;;;;;;;;;5110482;28;20082;-43
2023/07/20 01:41:05;;;;;;;0.10;0.10;;;;;;;;;;5098962;28;20139;-42
2023/07/20 01:43:30;;;;;;;0.10;0.10;;;;;;;;;;5093153;28;20044;-41
2023/07/20 01:45:56;;;;;;;0.10;0.10;;;;;;;;;;5110404;28;20051;-41
2023/07/20 01:48:21;;;;;;;0.10;0.10;;;;;;;;;;5111457;28;20052;-42
2023/07/20 01:50:47;;;;;;;0.10;0.10;;;;;;;;;;5107202;28;20727;-43
2023/07/20 01:53:12;;;;;;;0.10;0.10;;;;;;;;;;5112582;28;20043;-43
2023/07/20 01:55:38;;;;;;;0.10;0.10;;;;;;;;;;5131301;28;20077;-41
2023/07/20 01:58:04;;;;;;;0.10;0.10;;;;;;;;;;5119768;28;20044;-41
2023/07/20 02:00:30;;;;;;;0.10;0.10;;;;;;;;;;5110575;28;20051;-42
2023/07/20 02:02:55;;;;;;;0.10;0.10;;;;;;;;;;5110484;28;20048;-41
2023/07/20 02:05:21;;;;;;;0.10;0.10;;;;;;;;;;5110755;28;20048;-41
2023/07/20 02:07:47;;;;;;;0.10;0.10;;;;;;;;;;5110995;28;20054;-42
2023/07/20 02:10:12;;;;;;;0.10;0.10;;;;;;;;;;5109528;28;20056;-41
2023/07/20 02:12:38;;;;;;;0.10;0.10;;;;;;;;;;5110873;28;20187;-42
2023/07/20 02:15:04;;;;;;;0.10;0.10;;;;;;;;;;5110830;28;20047;-40
2023/07/20 02:17:30;;;;;;;0.10;0.10;;;;;;;;;;5110685;28;20067;-42
2023/07/20 02:19:56;;;;;;;0.10;0.10;;;;;;;;;;5110072;28;20051;-42
2023/07/20 02:22:21;;;;;;;0.10;0.10;;;;;;;;;;5110585;28;20078;-41
2023/07/20 02:24:47;;;;;;;0.10;0.10;;;;;;;;;;5110418;28;20059;-41
2023/07/20 02:27:12;;;;;;;0.10;0.10;;;;;;;;;;5110615;28;20048;-41
2023/07/20 02:29:40;;;;;;;0.10;0.10;;;;;;;;;;5114125;28;20047;-42
2023/07/20 02:32:06;;;;;;;0.10;0.10;;;;;;;;;;5111407;28;20054;-44
2023/07/20 02:34:32;;;;;;;0.10;0.10;;;;;;;;;;5113316;28;20447;-42
2023/07/20 02:36:58;;;;;;;0.10;0.10;;;;;;;;;;5112981;28;20047;-44
2023/07/20 02:39:24;;;;;;;0.10;0.10;;;;;;;;;;5112666;28;20101;-41
2023/07/20 02:41:50;;;;;;;0.20;0.20;;;;;;;;;;5111069;28;20455;-41
2023/07/20 02:44:15;;;;;;;0.10;0.10;;;;;;;;;;5112182;28;20576;-41
2023/07/20 02:46:41;;;;;;;0.10;0.10;;;;;;;;;;5111974;28;20480;-42
2023/07/20 02:49:07;;;;;;;0.10;0.10;;;;;;;;;;5113115;28;20079;-59
2023/07/20 02:51:32;;;;;;;0.10;0.10;;;;;;;;;;5121530;28;20146;-58
2023/07/20 02:53:58;;;;;;;0.10;0.10;;;;;;;;;;5133335;28;20479;-50
2023/07/20 02:56:24;;;;;;;0.10;0.10;;;;;;;;;;5132817;28;20491;-50
2023/07/20 02:58:50;;;;;;;0.10;0.10;;;;;;;;;;5132535;28;20054;-50
2023/07/20 03:01:16;;;;;;;0.10;0.10;;;;;;;;;;5105435;28;20059;-50
2023/07/20 03:03:45;;;;;;;0.10;0.10;;;;;;;;;;5101305;28;20108;-51
2023/07/20 03:06:11;;;;;;;0.10;0.10;;;;;;;;;;5112106;28;20039;-50
2023/07/20 03:08:37;;;;;;;0.10;0.10;;;;;;;;;;5112687;28;20055;-50
2023/07/20 03:11:02;;;;;;;0.10;0.10;;;;;;;;;;5099522;28;20076;-51
2023/07/20 03:13:28;;;;;;;0.10;0.10;;;;;;;;;;5091616;28;20453;-50
2023/07/20 03:15:53;;;;;;;0.10;0.10;;;;;;;;;;5091366;28;20098;-49
2023/07/20 03:18:19;;;;;;;0.10;0.10;;;;;;;;;;5092851;28;20372;-50
2023/07/20 03:20:45;;;;;;;0.10;0.10;;;;;;;;;;5092666;28;20047;-49
2023/07/20 03:23:11;;;;;;;0.13;0.13;;;;;;;;;;5110475;28;20520;-51
2023/07/20 03:25:37;;;;;;;0.10;0.10;;;;;;;;;;5113067;28;20048;-51
2023/07/20 03:28:03;;;;;;;0.10;0.10;;;;;;;;;;5113213;28;20503;-51
2023/07/20 03:30:28;;;;;;;0.10;0.10;;;;;;;;;;5105959;28;20044;-51
2023/07/20 03:32:54;;;;;;;0.10;0.10;;;;;;;;;;5106804;28;20411;-51
2023/07/20 03:35:19;;;;;;;0.10;0.10;;;;;;;;;;5113329;28;20051;-51
2023/07/20 03:37:45;;;;;;;0.10;0.10;;;;;;;;;;5112839;28;20044;-51
2023/07/20 03:40:10;;;;;;;0.10;0.10;;;;;;;;;;5106659;28;20059;-51
2023/07/20 03:42:36;;;;;;;0.10;0.10;;;;;;;;;;5105492;28;20068;-50
2023/07/20 03:45:02;;;;;;;0.10;0.10;;;;;;;;;;5112869;28;20040;-51
2023/07/20 03:47:28;;;;;;;0.10;0.10;;;;;;;;;;5111838;28;20487;-50
2023/07/20 03:49:54;;;;;;;0.10;0.10;;;;;;;;;;5109540;28;20088;-51
2023/07/20 03:52:19;;;;;;;0.10;0.10;;;;;;;;;;5126807;28;20047;-50
2023/07/20 03:54:45;;;;;;;0.10;0.10;;;;;;;;;;5112926;28;20070;-49
2023/07/20 03:57:10;;;;;;;0.10;0.10;;;;;;;;;;5112530;28;20043;-51
2023/07/20 03:59:37;;;;;;;0.10;0.10;;;;;;;;;;5112185;28;20385;-51
2023/07/20 04:02:02;;;;;;;0.10;0.10;;;;;;;;;;5111875;28;20048;-50
2023/07/20 04:04:28;;;;;;;0.10;0.10;;;;;;;;;;5112202;28;20108;-50
2023/07/20 04:06:53;;;;;;;0.10;0.10;;;;;;;;;;5111579;28;20047;-51
2023/07/20 04:09:19;;;;;;;0.10;0.10;;;;;;;;;;5112156;28;20043;-49
2023/07/20 04:11:44;;;;;;;0.10;0.10;;;;;;;;;;5093650;28;20116;-51
2023/07/20 04:14:10;;;;;;;0.10;0.10;;;;;;;;;;5091631;28;20117;-50
2023/07/20 04:16:35;;;;;;;0.10;0.10;;;;;;;;;;5091498;28;20064;-50
2023/07/20 04:19:01;;;;;;;0.10;0.10;;;;;;;;;;5091589;28;20044;-51
2023/07/20 04:21:27;;;;;;;0.10;0.10;;;;;;;;;;5090843;28;20044;-51
2023/07/20 04:23:52;;;;;;;0.10;0.10;;;;;;;;;;5100954;28;20055;-50
2023/07/20 04:26:18;;;;;;;0.10;0.10;;;;;;;;;;5111436;28;20298;-51
2023/07/20 04:28:43;;;;;;;0.10;0.10;;;;;;;;;;5111790;28;20081;-51
2023/07/20 04:31:12;;;;;;;0.13;0.10;;;;;;;;;;5111402;28;20193;-50
2023/07/20 04:33:38;;;;;;;0.10;0.10;;;;;;;;;;5111340;28;20458;-50
2023/07/20 04:36:04;;;;;;;0.10;0.10;;;;;;;;;;5111435;28;20130;-50
2023/07/20 04:38:29;;;;;;;0.10;0.10;;;;;;;;;;5111503;28;20074;-50
2023/07/20 04:41:01;;;;;;;0.10;0.10;;;;;;;;;;5099507;28;20048;-51
2023/07/20 04:43:26;;;;;;;0.10;0.10;;;;;;;;;;5095854;28;20476;-49
2023/07/20 04:45:52;;;;;;;0.10;0.10;;;;;;;;;;5111327;28;20060;-51
2023/07/20 04:48:18;;;;;;;0.10;0.10;;;;;;;;;;5112054;28;20537;-51
2023/07/20 04:50:45;;;;;;;0.10;0.10;;;;;;;;;;5110886;28;20052;-51
2023/07/20 04:53:12;;;;;;;0.10;0.10;;;;;;;;;;5111437;28;20393;-51
2023/07/20 04:55:38;;;;;;;0.10;0.10;;;;;;;;;;5111688;28;20048;-49
2023/07/20 04:58:04;;;;;;;0.10;0.10;;;;;;;;;;5111268;28;20050;-51
2023/07/20 05:00:30;;;;;;;0.10;0.10;;;;;;;;;;5111116;28;20043;-50
2023/07/20 05:02:56;;;;;;;0.10;0.10;;;;;;;;;;5111738;28;20480;-51
2023/07/20 05:05:22;;;;;;;0.10;0.10;;;;;;;;;;5111917;28;20047;-50
2023/07/20 05:07:47;;;;;;;0.10;0.10;;;;;;;;;;5111018;28;20048;-51
2023/07/20 05:10:13;;;;;;;0.10;0.10;;;;;;;;;;5111040;28;20154;-50
2023/07/20 05:12:38;;;;;;;0.10;0.10;;;;;;;;;;5111684;28;20055;-50
2023/07/20 05:15:04;;;;;;;0.10;0.10;;;;;;;;;;5111017;28;20154;-50
2023/07/20 05:17:30;;;;;;;0.10;0.10;;;;;;;;;;5111273;28;20139;-50
2023/07/20 05:19:55;;;;;;;0.10;0.10;;;;;;;;;;5111127;28;20524;-49
2023/07/20 05:22:21;;;;;;;0.10;0.10;;;;;;;;;;5111675;28;20458;-51
2023/07/20 05:24:46;;;;;;;0.10;0.10;;;;;;;;;;5111122;28;20504;-51
2023/07/20 05:27:12;;;;;;;0.10;0.10;;;;;;;;;;5110869;28;20134;-51
2023/07/20 05:29:37;;;;;;;0.10;0.10;;;;;;;;;;5111595;28;20044;-50
2023/07/20 05:32:03;;;;;;;0.10;0.10;;;;;;;;;;5090375;28;20052;-51
2023/07/20 05:34:29;;;;;;;0.10;0.10;;;;;;;;;;5090610;28;20389;-51
2023/07/20 05:36:55;;;;;;;0.10;0.10;;;;;;;;;;5108594;28;20044;-50
2023/07/20 05:39:20;;;;;;;0.10;0.10;;;;;;;;;;5110961;28;20059;-51
2023/07/20 05:41:46;;;;;;;0.20;0.20;;;;;;;;;;5092866;28;20052;-51
2023/07/20 05:44:12;;;;;;;0.10;0.10;;;;;;;;;;5091057;28;20139;-51
2023/07/20 05:46:37;;;;;;;0.10;0.10;;;;;;;;;;5106388;28;20138;-51
2023/07/20 05:49:22;;;;;;;0.10;0.10;;;;;;;;;;5110992;28;20426;-50
2023/07/20 05:51:47;;;;;;;0.10;0.10;;;;;;;;;;5107877;28;20050;-51
2023/07/20 05:54:13;;;;;;;0.10;0.10;;;;;;;;;;5110886;28;20078;-51
2023/07/20 05:56:38;;;;;;;0.10;0.10;;;;;;;;;;5110810;28;20076;-50
2023/07/20 05:59:04;;;;;;;0.10;0.10;;;;;;;;;;5110956;28;20046;-50
2023/07/20 06:01:29;;;;;;;0.10;0.10;;;;;;;;;;5110383;28;20081;-50
2023/07/20 06:03:55;;;;;;;0.10;0.10;;;;;;;;;;5113583;28;20078;-49
2023/07/20 06:06:21;;;;;;;0.10;0.10;;;;;;;;;;5114530;28;20043;-51
2023/07/20 06:08:48;;;;;;;0.10;0.10;;;;;;;;;;5113449;28;20055;-50
2023/07/20 06:11:13;;;;;;;0.10;0.10;;;;;;;;;;5113048;28;20127;-51
2023/07/20 06:13:39;;;;;;;0.10;0.10;;;;;;;;;;5113863;28;20048;-50
2023/07/20 06:16:04;;;;;;;0.10;0.10;;;;;;;;;;5113736;28;20539;-51
2023/07/20 06:18:30;;;;;;;0.10;0.10;;;;;;;;;;5113997;28;20392;-51
2023/07/20 06:20:56;;;;;;;0.10;0.10;;;;;;;;;;5113518;28;20052;-51
2023/07/20 06:23:22;;;;;;;0.10;0.10;;;;;;;;;;5113756;28;20047;-50
2023/07/20 06:25:47;;;;;;;0.10;0.10;;;;;;;;;;5113694;28;20381;-50
2023/07/20 06:28:13;;;;;;;0.10;0.10;;;;;;;;;;5113051;28;20048;-51
2023/07/20 06:30:39;;;;;;;0.10;0.10;;;;;;;;;;5105004;28;20424;-50
2023/07/20 06:33:05;;;;;;;0.10;0.10;;;;;;;;;;5093189;28;20040;-50
2023/07/20 06:35:30;;;;;;;0.10;0.10;;;;;;;;;;5093238;28;20067;-50
2023/07/20 06:37:57;;;;;;;0.20;0.20;;;;;;;;;;5104340;28;20293;-51
2023/07/20 06:40:42;;;;;;;0.10;0.10;;;;;;;;;;5113999;28;20063;-50
2023/07/20 06:43:08;;;;;;;0.10;0.10;;;;;;;;;;5093286;28;20044;-50
2023/07/20 06:45:36;;;;;;;0.10;0.10;;;;;;;;;;5092958;28;20051;-51
2023/07/20 06:48:02;;;;;;;0.10;0.10;;;;;;;;;;5105748;28;20048;-51
2023/07/20 06:50:28;;;;;;;0.10;0.10;;;;;;;;;;5112402;28;20133;-50
2023/07/20 06:52:53;;;;;;;0.10;0.10;;;;;;;;;;5113066;28;20056;-51
2023/07/20 06:55:20;;;;;;;0.10;0.10;;;;;;;;;;5113432;28;20051;-50
2023/07/20 06:57:49;;;;;;;0.10;0.10;;;;;;;;;;5113154;28;20488;-51
2023/07/20 07:00:14;;;;;;;0.10;0.10;;;;;;;;;;5112847;28;20052;-50
2023/07/20 07:02:40;;;;;;;0.10;0.10;;;;;;;;;;5113187;28;20051;-51
2023/07/20 07:05:06;;;;;;;0.10;0.10;;;;;;;;;;5112906;28;20096;-50
2023/07/20 07:07:35;;;;;;;0.10;0.10;;;;;;;;;;5113306;28;20047;-51
2023/07/20 07:10:01;;;;;;;0.10;0.10;;;;;;;;;;5111092;28;20928;-50
2023/07/20 07:12:27;;;;;;;0.13;0.13;;;;;;;;;;5112752;28;20043;-51
2023/07/20 07:14:53;;;;;;;0.10;0.10;;;;;;;;;;5112314;28;20136;-50
2023/07/20 07:17:19;;;;;;;0.10;0.10;;;;;;;;;;5112536;28;20499;-50
2023/07/20 07:19:45;;;;;;;0.10;0.10;;;;;;;;;;5111931;28;20087;-50
2023/07/20 07:22:14;;;;;;;0.10;0.10;;;;;;;;;;5092645;28;20057;-51
2023/07/20 07:24:41;;;;;;;0.10;0.10;;;;;;;;;;5092310;28;20048;-49
2023/07/20 07:27:08;;;;;;;0.10;0.10;;;;;;;;;;5092392;28;20140;-50
2023/07/20 07:29:33;;;;;;;0.10;0.10;;;;;;;;;;5104118;28;20048;-51
2023/07/20 07:31:59;;;;;;;0.10;0.10;;;;;;;;;;5112823;28;20056;-49
2023/07/20 07:34:25;;;;;;;0.10;0.10;;;;;;;;;;5112923;28;20144;-51
2023/07/20 07:36:50;;;;;;;0.15;0.15;;;;;;;;;;5112693;28;20440;-50
2023/07/20 07:39:16;;;;;;;0.10;0.10;;;;;;;;;;5112276;28;20461;-51
2023/07/20 07:41:44;;;;;;;0.10;0.10;;;;;;;;;;5112003;28;20048;-51
2023/07/20 07:44:10;;;;;;;0.10;0.10;;;;;;;;;;5112246;28;20435;-48
2023/07/20 07:46:35;;;;;;;0.10;0.10;;;;;;;;;;5111482;28;20082;-50
2023/07/20 07:49:01;;;;;;;0.10;0.10;;;;;;;;;;5111536;28;20043;-50
2023/07/20 07:51:27;;;;;;;0.10;0.10;;;;;;;;;;5098830;28;20040;-51
2023/07/20 07:53:52;;;;;;;0.10;0.10;;;;;;;;;;5092889;28;20329;-50
2023/07/20 07:56:22;;;;;;;0.10;0.10;;;;;;;;;;5111678;28;20050;-51
2023/07/20 07:58:51;;;;;;;0.10;0.10;;;;;;;;;;5112177;28;20044;-51
2023/07/20 08:01:16;;;;;;;0.10;0.10;;;;;;;;;;5111882;28;20086;-50
2023/07/20 08:03:42;;;;;;;0.20;0.20;;;;;;;;;;5112363;28;20050;-51
2023/07/20 08:06:07;;;;;;;0.10;0.10;;;;;;;;;;5112347;28;20052;-50
2023/07/20 08:08:33;;;;;;;0.10;0.10;;;;;;;;;;5112053;28;20477;-51
2023/07/20 08:10:59;;;;;;;0.10;0.10;;;;;;;;;;5111002;28;20392;-50
2023/07/20 08:13:25;;;;;;;0.10;0.10;;;;;;;;;;5111913;28;20419;-50
2023/07/20 08:15:51;;;;;;;0.10;0.10;;;;;;;;;;5111633;28;20059;-50
2023/07/20 08:18:17;;;;;;;0.10;0.10;;;;;;;;;;5111912;28;20054;-51
2023/07/20 08:20:44;;;;;;;0.10;0.10;;;;;;;;;;5111900;28;20048;-51
2023/07/20 08:23:09;;;;;;;0.10;0.10;;;;;;;;;;5112421;28;20043;-50
2023/07/20 08:25:39;;;;;;;0.10;0.10;;;;;;;;;;5111397;28;20051;-51
2023/07/20 08:28:04;;;;;;;0.10;0.10;;;;;;;;;;5111924;28;20483;-50
2023/07/20 08:30:39;;;;;;;0.10;0.10;;;;;;;;;;5111266;28;20090;-49
2023/07/20 08:33:05;;;;;;;0.10;0.10;;;;;;;;;;5112263;28;20100;-51
2023/07/20 08:35:30;;;;;;;0.10;0.10;;;;;;;;;;5112030;28;20332;-50
2023/07/20 08:37:56;;;;;;;0.10;0.10;;;;;;;;;;5112286;28;20050;-50
2023/07/20 08:40:23;;;;;;;0.10;0.10;;;;;;;;;;5107696;28;20063;-50
2023/07/20 08:42:50;;;;;;;0.10;0.10;;;;;;;;;;5111413;28;20397;-50
2023/07/20 08:45:16;;;;;;;0.10;0.10;;;;;;;;;;5111980;28;20048;-50
2023/07/20 08:47:42;;;;;;;0.10;0.10;;;;;;;;;;5109085;27;20048;-50
2023/07/20 08:50:08;;;;;;;0.10;0.10;;;;;;;;;;5094572;28;20134;-51
2023/07/20 08:52:34;;;;;;;0.10;0.10;;;;;;;;;;5111078;28;20062;-51
2023/07/20 08:55:03;;;;;;;0.10;0.10;;;;;;;;;;5111694;28;20085;-51
2023/07/20 08:57:29;;;;;;;0.10;0.10;;;;;;;;;;5111244;28;20491;-50
2023/07/20 08:59:55;;;;;;;0.10;0.10;;;;;;;;;;5109403;28;20416;-51
2023/07/20 09:02:25;;;;;;;0.10;0.10;;;;;;;;;;5091369;28;20077;-51
2023/07/20 09:04:50;;;;;;;0.10;0.10;;;;;;;;;;5091537;28;20047;-50
2023/07/20 09:07:16;;;;;;;0.10;0.10;;;;;;;;;;5091762;28;20055;-50
2023/07/20 09:09:42;;;;;;;0.10;0.10;;;;;;;;;;5091004;28;20468;-50
2023/07/20 09:12:15;;;;;;;0.10;0.10;;;;;;;;;;5090675;28;20063;-50
2023/07/20 09:14:42;;;;;;;0.10;0.10;;;;;;;;;;5091180;28;20044;-51
2023/07/20 09:17:12;;;;;;;0.10;0.10;;;;;;;;;;5090883;28;20080;-50
2023/07/20 09:19:38;;;;;;;0.10;0.10;;;;;;;;;;5091084;28;20323;-51
2023/07/20 09:22:05;;;;;;;0.10;0.10;;;;;;;;;;5090316;28;20048;-50
2023/07/20 09:24:31;;;;;;;0.10;0.10;;;;;;;;;;5091250;28;20048;-51
2023/07/20 09:26:57;;;;;;;0.10;0.10;;;;;;;;;;5090875;28;20044;-51
2023/07/20 09:29:23;;;;;;;0.10;0.10;;;;;;;;;;5091974;28;20044;-49
2023/07/20 09:32:04;;;;;;;0.10;0.10;;;;;;;;;;5109171;28;20043;-51
2023/07/20 09:34:33;;;;;;;0.10;0.10;;;;;;;;;;5110666;28;20048;-50
2023/07/20 09:37:02;;;;;;;0.10;0.10;;;;;;;;;;5110963;28;20051;-51
2023/07/20 09:39:29;;;;;;;0.10;0.10;;;;;;;;;;5111201;28;20131;-49
2023/07/20 09:41:59;;;;;;;0.10;0.10;;;;;;;;;;5110569;28;20128;-50
2023/07/20 09:44:45;;;;;;;0.10;0.10;;;;;;;;;;5100126;28;20050;-50
2023/07/20 09:47:21;;;;;;;0.10;0.10;;;;;;;;;;5110095;28;20044;-50
2023/07/20 09:49:57;;;;;;;0.10;0.10;;;;;;;;;;5091788;28;20427;-48
2023/07/20 09:52:26;;;;;;;0.10;0.10;;;;;;;;;;5110399;28;20056;-50
2023/07/20 09:54:55;;;;;;;0.10;0.10;;;;;;;;;;5109163;28;20051;-50
2023/07/20 09:57:21;;;;;;;0.10;0.10;;;;;;;;;;5109855;28;20040;-50
2023/07/20 09:59:47;;;;;;;0.10;0.10;;;;;;;;;;5107047;28;20142;-50
2023/07/20 10:02:19;;;;;;;0.10;0.10;;;;;;;;;;5089994;28;20044;-50
2023/07/20 10:04:44;;;;;;;0.10;0.10;;;;;;;;;;5090115;28;20052;-51
2023/07/20 10:07:11;;;;;;;0.10;0.10;;;;;;;;;;5090004;28;20139;-51
2023/07/20 10:09:38;;;;;;;0.10;0.10;;;;;;;;;;5089460;28;20408;-51
2023/07/20 10:12:07;;;;;;;0.10;0.10;;;;;;;;;;5109244;28;20043;-50
2023/07/20 10:14:47;;;;;;;0.10;0.10;;;;;;;;;;5093225;28;20052;-51
2023/07/20 10:17:13;;;;;;;0.10;0.10;;;;;;;;;;5109985;28;20047;-51
2023/07/20 10:19:46;;;;;;;0.10;0.10;;;;;;;;;;5110407;28;20048;-50
2023/07/20 10:22:19;;;;;;;0.10;0.10;;;;;;;;;;5089689;28;20048;-51
2023/07/20 10:24:45;;;;;;;0.10;0.10;;;;;;;;;;5089822;28;20404;-51
2023/07/20 10:27:11;;;;;;;0.10;0.10;;;;;;;;;;5089776;28;20051;-50
2023/07/20 10:29:36;;;;;;;0.10;0.10;;;;;;;;;;5089566;28;20055;-50
2023/07/20 10:32:02;;;;;;;0.10;0.10;;;;;;;;;;5109008;28;20057;-51
2023/07/20 10:34:28;;;;;;;0.10;0.10;;;;;;;;;;5109473;28;20408;-48
2023/07/20 10:36:54;;;;;;;0.10;0.10;;;;;;;;;;5109951;28;20057;-49
2023/07/20 10:39:24;;;;;;;0.10;0.10;;;;;;;;;;5110193;28;20047;-51
2023/07/20 10:41:50;;;;;;;0.10;0.10;;;;;;;;;;5091241;28;20048;-51
2023/07/20 10:44:20;;;;;;;0.10;0.10;;;;;;;;;;5094372;28;20062;-49
2023/07/20 10:46:46;;;;;;;0.10;0.10;;;;;;;;;;5107585;27;20059;-50
2023/07/20 10:49:14;;;;;;;0.10;0.10;;;;;;;;;;5111232;28;20051;-50
2023/07/20 10:51:41;;;;;;;0.10;0.10;;;;;;;;;;5113079;28;20047;-51
2023/07/20 10:54:08;;;;;;;0.10;0.10;;;;;;;;;;5113229;28;20112;-50
2023/07/20 10:56:33;;;;;;;0.10;0.10;;;;;;;;;;5112981;28;20048;-51
2023/07/20 10:58:59;;;;;;;0.10;0.10;;;;;;;;;;5113200;28;20073;-50
2023/07/20 11:01:30;;;;;;;0.10;0.10;;;;;;;;;;5112141;28;20051;-51
2023/07/20 11:03:57;;;;;;;0.10;0.10;;;;;;;;;;5113012;28;20052;-50
2023/07/20 11:09:07;;;;;;;0.10;0.10;;;;;;;;;;5190163;27;20437;-50
2023/07/20 11:11:36;;;;;;;0.10;0.10;;;;;;;;;;5169374;27;20054;-50
2023/07/20 11:14:03;;;;;;;0.10;0.10;;;;;;;;;;5169947;27;20043;-50
2023/07/20 11:16:37;;;;;;;0.10;0.10;;;;;;;;;;5169445;27;20039;-50
2023/07/20 11:19:03;;;;;;;0.10;0.10;;;;;;;;;;5169944;27;20043;-50
2023/07/20 11:21:29;;;;;;;0.10;0.10;;;;;;;;;;5169821;27;20046;-50
2023/07/20 11:23:55;;;;;;;0.10;0.10;;;;;;;;;;5169695;27;20049;-50
2023/07/20 11:26:21;;;;;;;0.10;0.10;;;;;;;;;;5169951;27;20487;-50
2023/07/20 11:28:51;;;;;;;0.10;0.10;;;;;;;;;;5169782;27;20057;-50
2023/07/20 11:31:18;;;;;;;0.10;0.10;;;;;;;;;;5169619;27;20491;-50
2023/07/20 11:33:44;;;;;;;0.10;0.10;;;;;;;;;;5169337;27;20047;-50
2023/07/20 11:36:10;;;;;;;0.10;0.10;;;;;;;;;;5168609;27;20069;-49
2023/07/20 11:38:42;;;;;;;0.10;0.10;;;;;;;;;;5169376;27;20051;-50
2023/07/20 11:41:08;;;;;;;0.10;0.10;;;;;;;;;;5168694;27;20447;-50
2023/07/20 11:43:34;;;;;;;0.10;0.10;;;;;;;;;;5169636;27;20509;-50
2023/07/20 11:46:00;;;;;;;0.10;0.10;;;;;;;;;;5167438;27;20145;-50
2023/07/20 11:48:26;;;;;;;0.10;0.10;;;;;;;;;;5170079;27;20049;-49
2023/07/20 11:50:51;;;;;;;0.10;0.10;;;;;;;;;;5168794;27;20402;-50
2023/07/20 11:53:17;;;;;;;0.10;0.10;;;;;;;;;;5169445;27;20412;-50
2023/07/20 11:55:43;;;;;;;0.10;0.10;;;;;;;;;;5169239;27;20493;-50
2023/07/20 11:58:09;;;;;;;0.10;0.10;;;;;;;;;;5168962;27;20053;-51
2023/07/20 12:00:35;;;;;;;0.15;0.15;;;;;;;;;;5164997;27;20058;-50
2023/07/20 12:03:01;;;;;;;0.10;0.10;;;;;;;;;;5148230;27;20050;-49
2023/07/20 12:05:27;;;;;;;0.10;0.10;;;;;;;;;;5147945;27;20058;-50
2023/07/20 12:07:54;;;;;;;0.10;0.10;;;;;;;;;;5147979;27;20479;-50
2023/07/20 12:10:24;;;;;;;0.10;0.10;;;;;;;;;;5141593;27;20487;-49
2023/07/20 12:12:49;;;;;;;0.10;0.10;;;;;;;;;;5127290;28;20441;-50
2023/07/20 12:15:17;;;;;;;0.10;0.10;;;;;;;;;;5127494;28;20524;-50
2023/07/20 12:17:43;;;;;;;0.10;0.10;;;;;;;;;;5127255;28;20100;-50
2023/07/20 12:20:09;;;;;;;0.10;0.10;;;;;;;;;;5114925;28;20059;-49
2023/07/20 12:22:40;;;;;;;0.10;0.10;;;;;;;;;;5113925;28;20054;-49
2023/07/20 12:25:05;;;;;;;0.10;0.10;;;;;;;;;;5113403;28;20052;-49
2023/07/20 12:27:31;;;;;;;0.10;0.10;;;;;;;;;;5113641;28;20491;-50
2023/07/20 12:29:57;;;;;;;0.10;0.10;;;;;;;;;;5113398;28;20475;-50
2023/07/20 12:32:23;;;;;;;0.10;0.10;;;;;;;;;;5113783;28;20051;-50
2023/07/20 12:34:48;;;;;;;0.10;0.10;;;;;;;;;;5114660;28;20060;-53
2023/07/20 12:37:17;;;;;;;0.10;0.10;;;;;;;;;;5133547;27;20505;-53
2023/07/20 12:39:46;;;;;;;0.10;0.10;;;;;;;;;;5132922;28;20059;-52
2023/07/20 12:42:12;;;;;;;0.10;0.10;;;;;;;;;;5112733;28;20048;-53
2023/07/20 12:44:38;;;;;;;0.10;0.10;;;;;;;;;;5113389;28;20143;-53
2023/07/20 12:47:03;;;;;;;0.10;0.10;;;;;;;;;;5112733;27;20055;-53
2023/07/20 12:49:29;;;;;;;0.10;0.10;;;;;;;;;;5131054;28;20426;-51
2023/07/20 12:51:54;;;;;;;0.10;0.10;;;;;;;;;;5133562;28;20384;-53
2023/07/20 12:54:20;;;;;;;0.10;0.10;;;;;;;;;;5133884;28;20410;-52
2023/07/20 12:56:45;;;;;;;0.10;0.10;;;;;;;;;;5133649;28;20497;-52
2023/07/20 12:59:14;;;;;;;0.10;0.10;;;;;;;;;;5133622;28;20051;-52
2023/07/20 13:01:41;;;;;;;0.10;0.10;;;;;;;;;;5132987;27;20415;-50
2023/07/20 13:04:09;;;;;;;0.10;0.10;;;;;;;;;;5132904;28;20055;-52
2023/07/20 13:06:37;;;;;;;0.10;0.10;;;;;;;;;;5133702;28;20047;-53
2023/07/20 13:09:03;;;;;;;0.10;0.10;;;;;;;;;;5133484;28;20062;-52
2023/07/20 13:11:28;;;;;;;0.10;0.10;;;;;;;;;;5132147;28;20048;-52
2023/07/20 13:13:54;;;;;;;0.10;0.10;;;;;;;;;;5132901;28;20491;-51
2023/07/20 13:16:19;;;;;;;0.10;0.10;;;;;;;;;;5132928;28;20071;-52
2023/07/20 13:18:45;;;;;;;0.10;0.10;;;;;;;;;;5133705;28;20062;-52
2023/07/20 13:21:11;;;;;;;0.10;0.10;;;;;;;;;;5133200;28;20043;-52
2023/07/20 13:23:38;;;;;;;0.10;0.10;;;;;;;;;;5133295;28;20046;-52
2023/07/20 13:26:04;;;;;;;0.10;0.10;;;;;;;;;;5133214;28;20047;-49
2023/07/20 13:28:30;;;;;;;0.10;0.10;;;;;;;;;;5133436;28;20054;-52
2023/07/20 13:30:55;;;;;;;0.10;0.10;;;;;;;;;;5131630;27;20112;-52
2023/07/20 13:33:21;;;;;;;0.10;0.10;;;;;;;;;;5133218;28;20043;-52
2023/07/20 13:35:47;;;;;;;0.10;0.10;;;;;;;;;;5132941;28;20043;-53
2023/07/20 13:38:15;;;;;;;0.10;0.10;;;;;;;;;;5132285;28;20141;-52
2023/07/20 13:40:42;;;;;;;0.10;0.10;;;;;;;;;;5132166;27;20047;-52
2023/07/20 13:43:07;;;;;;;0.10;0.10;;;;;;;;;;5133075;27;20092;-52
2023/07/20 13:45:33;;;;;;;0.10;0.10;;;;;;;;;;5133507;27;20596;-52
2023/07/20 13:47:58;;;;;;;0.10;0.10;;;;;;;;;;5153184;27;20071;-52
2023/07/20 13:50:28;;;;;;;0.10;0.10;;;;;;;;;;5140278;27;20038;-52
2023/07/20 13:53:06;;;;;;;0.10;0.10;;;;;;;;;;5133037;28;20047;-52
2023/07/20 13:55:36;;;;;;;0.10;0.10;;;;;;;;;;5133140;28;20051;-51
2023/07/20 13:58:05;;;;;;;0.10;0.10;;;;;;;;;;5132534;28;20051;-52
2023/07/20 14:00:32;;;;;;;0.10;0.10;;;;;;;;;;5131327;28;20051;-52
2023/07/20 14:03:00;;;;;;;0.10;0.10;;;;;;;;;;5132685;28;20510;-52
2023/07/20 14:05:29;;;;;;;0.10;0.10;;;;;;;;;;5132200;28;20062;-52
2023/07/20 14:07:57;;;;;;;0.10;0.10;;;;;;;;;;5132542;27;20058;-52
2023/07/20 14:10:23;;;;;;;0.10;0.10;;;;;;;;;;5125465;27;20043;-52
2023/07/20 14:12:48;;;;;;;0.10;0.10;;;;;;;;;;5112217;28;20482;-52
2023/07/20 14:15:14;;;;;;;0.10;0.10;;;;;;;;;;5111741;28;20533;-51
2023/07/20 14:17:40;;;;;;;0.10;0.10;;;;;;;;;;5111673;28;20098;-52
2023/07/20 14:20:06;;;;;;;0.10;0.10;;;;;;;;;;5111313;28;20051;-52
2023/07/20 14:22:31;;;;;;;0.10;0.10;;;;;;;;;;5112074;28;20144;-52
2023/07/20 14:24:57;;;;;;;0.10;0.10;;;;;;;;;;5111761;28;20461;-52
2023/07/20 14:27:24;;;;;;;0.10;0.10;;;;;;;;;;5111722;28;20043;-52
2023/07/20 14:29:50;;;;;;;0.10;0.10;;;;;;;;;;5111335;28;20086;-52
2023/07/20 14:32:15;;;;;;;0.10;0.10;;;;;;;;;;5111684;28;20054;-52
2023/07/20 14:34:41;;;;;;;0.10;0.10;;;;;;;;;;5111413;28;20044;-52
2023/07/20 14:37:07;;;;;;;0.10;0.10;;;;;;;;;;5110649;28;20402;-52
2023/07/20 14:39:32;;;;;;;0.10;0.10;;;;;;;;;;5123495;28;20494;-52
2023/07/20 14:41:58;;;;;;;0.10;0.10;;;;;;;;;;5130296;27;20110;-52